sensor_id;sensor_type;location;lat;lon;timestamp;temperature;humidity
40289;DHT22;28991;52.028;5.526;2022-09-09T00:04:13;25.80;51.60
40289;DHT22;28991;52.028;5.526;2022-09-09T00:06:45;25.80;51.60
40289;DHT22;28991;52.028;5.526;2022-09-09T00:09:18;25.80;51.60
40289;DHT22;28991;52.028;5.526;2022-09-09T00:14:49;25.80;51.60
40289;DHT22;28991;52.028;5.526;2022-09-09T00:18:07;25.80;51.60
40289;DHT22;28991;52.028;5.526;2022-09-09T00:21:00;25.70;51.60
40289;DHT22;28991;52.028;5.526;2022-09-09T00:23:30;25.80;51.70
40289;DHT22;28991;52.028;5.526;2022-09-09T00:26:14;25.80;51.70
40289;DHT22;28991;52.028;5.526;2022-09-09T00:28:55;25.60;51.50
40289;DHT22;28991;52.028;5.526;2022-09-09T00:31:28;25.80;51.70
40289;DHT22;28991;52.028;5.526;2022-09-09T00:33:55;25.70;51.60
40289;DHT22;28991;52.028;5.526;2022-09-09T00:36:25;25.70;51.60
40289;DHT22;28991;52.028;5.526;2022-09-09T00:38:57;25.70;51.70
40289;DHT22;28991;52.028;5.526;2022-09-09T00:41:40;25.70;51.70
40289;DHT22;28991;52.028;5.526;2022-09-09T00:44:32;25.80;51.80
40289;DHT22;28991;52.028;5.526;2022-09-09T00:47:39;25.70;51.70
40289;DHT22;28991;52.028;5.526;2022-09-09T00:55:30;25.70;51.70
40289;DHT22;28991;52.028;5.526;2022-09-09T00:57:59;25.70;51.80
40289;DHT22;28991;52.028;5.526;2022-09-09T01:00:27;25.70;51.80
40289;DHT22;28991;52.028;5.526;2022-09-09T01:14:41;25.70;51.80
40289;DHT22;28991;52.028;5.526;2022-09-09T01:17:26;25.80;51.90
40289;DHT22;28991;52.028;5.526;2022-09-09T01:23:10;25.70;51.90
40289;DHT22;28991;52.028;5.526;2022-09-09T01:28:13;25.70;51.90
40289;DHT22;28991;52.028;5.526;2022-09-09T01:30:41;25.70;51.90
40289;DHT22;28991;52.028;5.526;2022-09-09T01:33:12;25.70;51.90
40289;DHT22;28991;52.028;5.526;2022-09-09T01:35:52;25.70;51.90
40289;DHT22;28991;52.028;5.526;2022-09-09T01:38:22;25.70;51.90
40289;DHT22;28991;52.028;5.526;2022-09-09T01:40:49;25.70;51.90
40289;DHT22;28991;52.028;5.526;2022-09-09T01:43:20;25.70;52.00
40289;DHT22;28991;52.028;5.526;2022-09-09T01:45:48;25.70;51.90
40289;DHT22;28991;52.028;5.526;2022-09-09T01:48:15;25.70;52.00
40289;DHT22;28991;52.028;5.526;2022-09-09T01:50:40;25.70;52.00
40289;DHT22;28991;52.028;5.526;2022-09-09T01:53:06;25.70;52.00
40289;DHT22;28991;52.028;5.526;2022-09-09T01:55:38;25.70;52.00
40289;DHT22;28991;52.028;5.526;2022-09-09T02:00:38;25.70;52.00
40289;DHT22;28991;52.028;5.526;2022-09-09T02:03:26;25.70;52.00
40289;DHT22;28991;52.028;5.526;2022-09-09T02:08:44;25.70;52.10
40289;DHT22;28991;52.028;5.526;2022-09-09T02:11:17;25.70;52.10
40289;DHT22;28991;52.028;5.526;2022-09-09T02:13:45;25.70;52.10
40289;DHT22;28991;52.028;5.526;2022-09-09T02:19:10;25.70;52.10
40289;DHT22;28991;52.028;5.526;2022-09-09T02:21:38;25.70;52.10
40289;DHT22;28991;52.028;5.526;2022-09-09T02:24:06;25.70;52.10
40289;DHT22;28991;52.028;5.526;2022-09-09T02:26:37;25.70;52.10
40289;DHT22;28991;52.028;5.526;2022-09-09T02:29:08;25.70;52.20
40289;DHT22;28991;52.028;5.526;2022-09-09T02:31:36;25.60;52.10
40289;DHT22;28991;52.028;5.526;2022-09-09T02:34:05;25.60;52.10
40289;DHT22;28991;52.028;5.526;2022-09-09T02:36:33;25.80;52.30
40289;DHT22;28991;52.028;5.526;2022-09-09T02:39:01;25.60;52.20
40289;DHT22;28991;52.028;5.526;2022-09-09T02:41:33;25.60;52.10
40289;DHT22;28991;52.028;5.526;2022-09-09T02:43:59;25.60;52.20
40289;DHT22;28991;52.028;5.526;2022-09-09T02:49:23;25.60;52.20
40289;DHT22;28991;52.028;5.526;2022-09-09T02:54:38;25.60;52.20
40289;DHT22;28991;52.028;5.526;2022-09-09T02:57:28;25.60;52.20
40289;DHT22;28991;52.028;5.526;2022-09-09T02:59:57;25.60;52.20
40289;DHT22;28991;52.028;5.526;2022-09-09T03:02:23;25.60;52.20
40289;DHT22;28991;52.028;5.526;2022-09-09T03:04:49;25.90;52.40
40289;DHT22;28991;52.028;5.526;2022-09-09T03:07:18;25.70;52.30
40289;DHT22;28991;52.028;5.526;2022-09-09T03:09:45;25.60;52.30
40289;DHT22;28991;52.028;5.526;2022-09-09T03:12:11;25.60;52.30
40289;DHT22;28991;52.028;5.526;2022-09-09T03:14:37;25.60;52.30
40289;DHT22;28991;52.028;5.526;2022-09-09T03:17:04;25.60;52.30
40289;DHT22;28991;52.028;5.526;2022-09-09T03:19:30;25.70;52.40
40289;DHT22;28991;52.028;5.526;2022-09-09T03:21:57;25.60;52.30
40289;DHT22;28991;52.028;5.526;2022-09-09T03:24:22;25.60;52.30
40289;DHT22;28991;52.028;5.526;2022-09-09T03:26:48;25.60;52.30
40289;DHT22;28991;52.028;5.526;2022-09-09T03:29:13;25.60;52.40
40289;DHT22;28991;52.028;5.526;2022-09-09T03:31:40;25.60;52.40
40289;DHT22;28991;52.028;5.526;2022-09-09T03:34:06;25.60;52.30
40289;DHT22;28991;52.028;5.526;2022-09-09T03:36:32;25.60;52.40
40289;DHT22;28991;52.028;5.526;2022-09-09T03:38:57;25.60;52.40
40289;DHT22;28991;52.028;5.526;2022-09-09T03:41:23;25.60;52.40
40289;DHT22;28991;52.028;5.526;2022-09-09T03:43:53;25.60;52.40
40289;DHT22;28991;52.028;5.526;2022-09-09T03:46:19;25.60;52.40
40289;DHT22;28991;52.028;5.526;2022-09-09T03:48:45;25.50;52.40
40289;DHT22;28991;52.028;5.526;2022-09-09T03:51:11;25.60;52.40
40289;DHT22;28991;52.028;5.526;2022-09-09T03:53:36;25.60;52.40
40289;DHT22;28991;52.028;5.526;2022-09-09T03:56:03;25.60;52.50
40289;DHT22;28991;52.028;5.526;2022-09-09T03:58:29;25.60;52.40
40289;DHT22;28991;52.028;5.526;2022-09-09T04:00:59;25.50;52.40
40289;DHT22;28991;52.028;5.526;2022-09-09T04:03:25;25.60;52.40
40289;DHT22;28991;52.028;5.526;2022-09-09T04:05:52;25.60;52.50
40289;DHT22;28991;52.028;5.526;2022-09-09T04:08:19;25.60;52.50
40289;DHT22;28991;52.028;5.526;2022-09-09T04:10:46;25.60;52.50
40289;DHT22;28991;52.028;5.526;2022-09-09T04:13:13;25.60;52.50
40289;DHT22;28991;52.028;5.526;2022-09-09T04:15:40;25.60;52.50
40289;DHT22;28991;52.028;5.526;2022-09-09T04:18:05;25.50;52.40
40289;DHT22;28991;52.028;5.526;2022-09-09T04:20:31;25.60;52.50
40289;DHT22;28991;52.028;5.526;2022-09-09T04:22:58;25.50;52.50
40289;DHT22;28991;52.028;5.526;2022-09-09T04:25:23;25.50;52.50
40289;DHT22;28991;52.028;5.526;2022-09-09T04:27:54;25.60;52.60
40289;DHT22;28991;52.028;5.526;2022-09-09T04:30:20;25.60;52.50
40289;DHT22;28991;52.028;5.526;2022-09-09T04:32:46;25.60;52.50
40289;DHT22;28991;52.028;5.526;2022-09-09T04:35:12;25.50;52.50
40289;DHT22;28991;52.028;5.526;2022-09-09T04:37:37;25.50;52.50
40289;DHT22;28991;52.028;5.526;2022-09-09T04:40:03;25.50;52.50
40289;DHT22;28991;52.028;5.526;2022-09-09T04:42:29;25.50;52.30
40289;DHT22;28991;52.028;5.526;2022-09-09T04:44:54;25.60;52.00
40289;DHT22;28991;52.028;5.526;2022-09-09T04:47:20;25.50;51.60
40289;DHT22;28991;52.028;5.526;2022-09-09T04:49:45;25.60;51.40
40289;DHT22;28991;52.028;5.526;2022-09-09T04:52:11;25.60;51.10
40289;DHT22;28991;52.028;5.526;2022-09-09T04:54:36;25.50;50.80
40289;DHT22;28991;52.028;5.526;2022-09-09T04:57:02;25.50;50.60
40289;DHT22;28991;52.028;5.526;2022-09-09T04:59:28;25.50;50.50
40289;DHT22;28991;52.028;5.526;2022-09-09T05:01:53;25.50;50.40
40289;DHT22;28991;52.028;5.526;2022-09-09T05:04:21;25.50;50.30
40289;DHT22;28991;52.028;5.526;2022-09-09T05:06:46;25.50;50.30
40289;DHT22;28991;52.028;5.526;2022-09-09T05:09:12;25.40;50.20
40289;DHT22;28991;52.028;5.526;2022-09-09T05:11:37;25.40;50.20
40289;DHT22;28991;52.028;5.526;2022-09-09T05:14:04;25.40;50.20
40289;DHT22;28991;52.028;5.526;2022-09-09T05:16:30;25.40;50.30
40289;DHT22;28991;52.028;5.526;2022-09-09T05:18:55;25.30;50.30
40289;DHT22;28991;52.028;5.526;2022-09-09T05:21:22;25.30;50.40
40289;DHT22;28991;52.028;5.526;2022-09-09T05:23:49;25.30;50.40
40289;DHT22;28991;52.028;5.526;2022-09-09T05:26:18;25.30;50.50
40289;DHT22;28991;52.028;5.526;2022-09-09T05:28:44;25.60;50.70
40289;DHT22;28991;52.028;5.526;2022-09-09T05:31:11;25.20;50.50
40289;DHT22;28991;52.028;5.526;2022-09-09T05:33:39;25.60;50.80
40289;DHT22;28991;52.028;5.526;2022-09-09T05:36:11;25.30;50.60
40289;DHT22;28991;52.028;5.526;2022-09-09T05:38:39;25.30;50.70
40289;DHT22;28991;52.028;5.526;2022-09-09T05:41:06;25.30;50.80
40289;DHT22;28991;52.028;5.526;2022-09-09T05:43:33;25.30;50.70
40289;DHT22;28991;52.028;5.526;2022-09-09T05:46:06;25.40;50.70
40289;DHT22;28991;52.028;5.526;2022-09-09T05:48:41;25.40;50.70
40289;DHT22;28991;52.028;5.526;2022-09-09T05:51:10;25.40;50.70
40289;DHT22;28991;52.028;5.526;2022-09-09T05:53:37;25.40;50.70
40289;DHT22;28991;52.028;5.526;2022-09-09T05:56:06;25.50;50.70
40289;DHT22;28991;52.028;5.526;2022-09-09T05:58:35;25.50;50.60
40289;DHT22;28991;52.028;5.526;2022-09-09T06:01:05;25.60;50.60
40289;DHT22;28991;52.028;5.526;2022-09-09T06:03:34;25.60;50.60
40289;DHT22;28991;52.028;5.526;2022-09-09T06:06:01;25.70;50.70
40289;DHT22;28991;52.028;5.526;2022-09-09T06:08:27;25.60;50.60
40289;DHT22;28991;52.028;5.526;2022-09-09T06:10:53;25.60;50.70
40289;DHT22;28991;52.028;5.526;2022-09-09T06:13:27;25.60;50.90
40289;DHT22;28991;52.028;5.526;2022-09-09T06:15:53;25.60;50.90
40289;DHT22;28991;52.028;5.526;2022-09-09T06:18:19;25.60;51.00
40289;DHT22;28991;52.028;5.526;2022-09-09T06:24:10;25.60;51.30
40289;DHT22;28991;52.028;5.526;2022-09-09T06:26:37;25.60;51.30
40289;DHT22;28991;52.028;5.526;2022-09-09T06:29:05;25.60;51.30
40289;DHT22;28991;52.028;5.526;2022-09-09T06:31:33;25.60;51.30
40289;DHT22;28991;52.028;5.526;2022-09-09T06:33:59;26.80;52.20
40289;DHT22;28991;52.028;5.526;2022-09-09T06:36:36;25.60;51.50
40289;DHT22;28991;52.028;5.526;2022-09-09T06:39:03;25.60;51.50
40289;DHT22;28991;52.028;5.526;2022-09-09T06:41:31;25.60;51.50
40289;DHT22;28991;52.028;5.526;2022-09-09T06:43:56;25.70;51.60
40289;DHT22;28991;52.028;5.526;2022-09-09T06:46:30;25.70;51.70
40289;DHT22;28991;52.028;5.526;2022-09-09T06:48:57;25.70;51.80
40289;DHT22;28991;52.028;5.526;2022-09-09T06:51:27;25.70;51.70
40289;DHT22;28991;52.028;5.526;2022-09-09T06:53:55;25.70;51.70
40289;DHT22;28991;52.028;5.526;2022-09-09T06:58:54;25.70;51.70
40289;DHT22;28991;52.028;5.526;2022-09-09T07:01:22;25.70;51.70
40289;DHT22;28991;52.028;5.526;2022-09-09T07:03:50;25.70;51.80
40289;DHT22;28991;52.028;5.526;2022-09-09T07:06:24;25.70;51.80
40289;DHT22;28991;52.028;5.526;2022-09-09T07:08:52;25.70;52.10
40289;DHT22;28991;52.028;5.526;2022-09-09T07:11:19;25.70;52.10
40289;DHT22;28991;52.028;5.526;2022-09-09T07:13:45;25.70;52.00
40289;DHT22;28991;52.028;5.526;2022-09-09T07:16:13;25.70;52.20
40289;DHT22;28991;52.028;5.526;2022-09-09T07:18:39;25.70;52.30
40289;DHT22;28991;52.028;5.526;2022-09-09T07:21:05;25.70;52.30
40289;DHT22;28991;52.028;5.526;2022-09-09T07:23:31;25.70;52.40
40289;DHT22;28991;52.028;5.526;2022-09-09T07:25:57;25.70;52.40
40289;DHT22;28991;52.028;5.526;2022-09-09T07:28:23;25.70;52.40
40289;DHT22;28991;52.028;5.526;2022-09-09T07:31:00;25.70;52.40
40289;DHT22;28991;52.028;5.526;2022-09-09T07:33:27;25.70;52.30
40289;DHT22;28991;52.028;5.526;2022-09-09T07:36:03;25.70;52.40
40289;DHT22;28991;52.028;5.526;2022-09-09T07:38:29;25.70;52.40
40289;DHT22;28991;52.028;5.526;2022-09-09T07:41:06;25.70;52.40
40289;DHT22;28991;52.028;5.526;2022-09-09T07:43:33;25.80;52.50
40289;DHT22;28991;52.028;5.526;2022-09-09T07:46:00;25.70;52.50
40289;DHT22;28991;52.028;5.526;2022-09-09T07:48:29;25.80;52.30
40289;DHT22;28991;52.028;5.526;2022-09-09T07:51:13;25.90;52.40
40289;DHT22;28991;52.028;5.526;2022-09-09T07:53:42;26.00;52.60
40289;DHT22;28991;52.028;5.526;2022-09-09T07:56:10;26.00;52.60
40289;DHT22;28991;52.028;5.526;2022-09-09T07:58:37;26.00;52.70
40289;DHT22;28991;52.028;5.526;2022-09-09T08:01:13;26.00;52.70
40289;DHT22;28991;52.028;5.526;2022-09-09T08:03:38;26.10;52.80
40289;DHT22;28991;52.028;5.526;2022-09-09T08:06:06;26.00;52.70
40289;DHT22;28991;52.028;5.526;2022-09-09T08:08:33;26.10;52.70
40289;DHT22;28991;52.028;5.526;2022-09-09T08:11:09;26.00;52.50
40289;DHT22;28991;52.028;5.526;2022-09-09T08:13:36;26.00;52.40
40289;DHT22;28991;52.028;5.526;2022-09-09T08:18:38;26.00;52.40
40289;DHT22;28991;52.028;5.526;2022-09-09T08:21:11;26.00;52.30
40289;DHT22;28991;52.028;5.526;2022-09-09T08:23:38;26.00;52.30
40289;DHT22;28991;52.028;5.526;2022-09-09T08:26:13;26.00;52.20
40289;DHT22;28991;52.028;5.526;2022-09-09T08:28:40;26.00;52.10
40289;DHT22;28991;52.028;5.526;2022-09-09T08:31:14;26.10;52.20
40289;DHT22;28991;52.028;5.526;2022-09-09T08:33:42;26.00;52.20
40289;DHT22;28991;52.028;5.526;2022-09-09T08:36:12;26.10;52.40
40289;DHT22;28991;52.028;5.526;2022-09-09T08:38:38;26.00;52.40
40289;DHT22;28991;52.028;5.526;2022-09-09T08:43:36;26.00;52.50
40289;DHT22;28991;52.028;5.526;2022-09-09T08:46:14;25.90;52.50
40289;DHT22;28991;52.028;5.526;2022-09-09T08:49:16;25.90;52.60
40289;DHT22;28991;52.028;5.526;2022-09-09T08:51:43;25.90;52.70
40289;DHT22;28991;52.028;5.526;2022-09-09T08:54:09;25.90;52.70
40289;DHT22;28991;52.028;5.526;2022-09-09T08:56:35;25.90;53.00
40289;DHT22;28991;52.028;5.526;2022-09-09T08:59:02;25.90;53.00
40289;DHT22;28991;52.028;5.526;2022-09-09T09:01:50;25.90;53.10
40289;DHT22;28991;52.028;5.526;2022-09-09T09:04:37;25.90;53.20
40289;DHT22;28991;52.028;5.526;2022-09-09T09:07:28;25.90;53.30
40289;DHT22;28991;52.028;5.526;2022-09-09T09:12:43;26.00;53.30
40289;DHT22;28991;52.028;5.526;2022-09-09T09:15:21;25.90;53.10
40289;DHT22;28991;52.028;5.526;2022-09-09T09:17:48;26.00;53.00
40289;DHT22;28991;52.028;5.526;2022-09-09T09:20:15;25.90;52.90
40289;DHT22;28991;52.028;5.526;2022-09-09T09:22:52;25.90;52.70
40289;DHT22;28991;52.028;5.526;2022-09-09T09:25:33;25.90;52.70
40289;DHT22;28991;52.028;5.526;2022-09-09T09:28:15;25.90;52.70
40289;DHT22;28991;52.028;5.526;2022-09-09T09:30:50;25.90;52.70
40289;DHT22;28991;52.028;5.526;2022-09-09T09:33:19;26.00;52.70
40289;DHT22;28991;52.028;5.526;2022-09-09T09:35:49;25.90;52.60
40289;DHT22;28991;52.028;5.526;2022-09-09T09:38:18;26.00;52.80
40289;DHT22;28991;52.028;5.526;2022-09-09T09:40:54;25.90;53.20
40289;DHT22;28991;52.028;5.526;2022-09-09T09:43:32;26.00;52.80
40289;DHT22;28991;52.028;5.526;2022-09-09T09:45:59;25.90;52.90
40289;DHT22;28991;52.028;5.526;2022-09-09T09:48:26;26.00;52.90
40289;DHT22;28991;52.028;5.526;2022-09-09T09:51:02;25.90;52.80
40289;DHT22;28991;52.028;5.526;2022-09-09T09:53:32;25.90;52.70
40289;DHT22;28991;52.028;5.526;2022-09-09T09:56:12;25.90;52.70
40289;DHT22;28991;52.028;5.526;2022-09-09T10:01:27;25.90;52.60
40289;DHT22;28991;52.028;5.526;2022-09-09T10:04:22;25.90;52.50
40289;DHT22;28991;52.028;5.526;2022-09-09T10:06:51;25.90;52.40
40289;DHT22;28991;52.028;5.526;2022-09-09T10:09:30;25.90;52.40
40289;DHT22;28991;52.028;5.526;2022-09-09T10:12:08;25.90;52.40
40289;DHT22;28991;52.028;5.526;2022-09-09T10:22:49;25.80;52.30
40289;DHT22;28991;52.028;5.526;2022-09-09T10:36:35;25.80;52.40
40289;DHT22;28991;52.028;5.526;2022-09-09T10:39:25;25.80;52.40
40289;DHT22;28991;52.028;5.526;2022-09-09T10:42:08;25.80;52.50
40289;DHT22;28991;52.028;5.526;2022-09-09T10:44:48;25.80;52.60
40289;DHT22;28991;52.028;5.526;2022-09-09T10:50:24;25.70;52.50
40289;DHT22;28991;52.028;5.526;2022-09-09T10:53:05;25.80;52.50
40289;DHT22;28991;52.028;5.526;2022-09-09T10:55:41;25.80;52.50
40289;DHT22;28991;52.028;5.526;2022-09-09T10:58:14;25.80;52.50
40289;DHT22;28991;52.028;5.526;2022-09-09T11:00:49;25.80;52.50
40289;DHT22;28991;52.028;5.526;2022-09-09T11:03:25;25.90;52.50
40289;DHT22;28991;52.028;5.526;2022-09-09T11:05:55;26.00;52.50
40289;DHT22;28991;52.028;5.526;2022-09-09T11:08:27;26.10;52.70
40289;DHT22;28991;52.028;5.526;2022-09-09T11:13:44;25.80;53.20
40289;DHT22;28991;52.028;5.526;2022-09-09T11:19:13;25.40;54.60
40289;DHT22;28991;52.028;5.526;2022-09-09T11:21:47;25.30;55.00
40289;DHT22;28991;52.028;5.526;2022-09-09T11:24:35;25.10;55.20
40289;DHT22;28991;52.028;5.526;2022-09-09T11:40:41;24.70;57.20
40289;DHT22;28991;52.028;5.526;2022-09-09T11:45:40;24.60;58.00
40289;DHT22;28991;52.028;5.526;2022-09-09T11:48:23;24.60;58.00
40289;DHT22;28991;52.028;5.526;2022-09-09T11:51:07;24.50;58.30
40289;DHT22;28991;52.028;5.526;2022-09-09T11:53:35;24.40;58.10
40289;DHT22;28991;52.028;5.526;2022-09-09T11:56:13;24.40;58.80
40289;DHT22;28991;52.028;5.526;2022-09-09T11:58:42;24.30;59.10
40289;DHT22;28991;52.028;5.526;2022-09-09T12:01:25;24.30;58.70
40289;DHT22;28991;52.028;5.526;2022-09-09T12:04:01;24.30;58.90
40289;DHT22;28991;52.028;5.526;2022-09-09T12:06:32;24.30;58.40
40289;DHT22;28991;52.028;5.526;2022-09-09T12:09:12;24.70;58.60
40289;DHT22;28991;52.028;5.526;2022-09-09T12:11:40;24.30;58.50
40289;DHT22;28991;52.028;5.526;2022-09-09T12:14:23;24.30;58.20
40289;DHT22;28991;52.028;5.526;2022-09-09T12:17:25;24.40;58.60
40289;DHT22;28991;52.028;5.526;2022-09-09T12:20:12;24.30;58.20
40289;DHT22;28991;52.028;5.526;2022-09-09T12:29:00;24.40;58.30
40289;DHT22;28991;52.028;5.526;2022-09-09T12:31:44;24.40;58.00
40289;DHT22;28991;52.028;5.526;2022-09-09T12:34:33;24.50;58.00
40289;DHT22;28991;52.028;5.526;2022-09-09T12:37:15;24.40;58.00
40289;DHT22;28991;52.028;5.526;2022-09-09T12:39:53;24.40;58.00
40289;DHT22;28991;52.028;5.526;2022-09-09T12:42:21;24.40;58.00
40289;DHT22;28991;52.028;5.526;2022-09-09T12:44:54;24.30;57.70
40289;DHT22;28991;52.028;5.526;2022-09-09T12:50:02;24.10;58.50
40289;DHT22;28991;52.028;5.526;2022-09-09T12:52:34;24.00;58.20
40289;DHT22;28991;52.028;5.526;2022-09-09T12:55:03;24.10;58.60
40289;DHT22;28991;52.028;5.526;2022-09-09T12:57:36;24.00;58.70
40289;DHT22;28991;52.028;5.526;2022-09-09T13:00:17;24.00;58.70
40289;DHT22;28991;52.028;5.526;2022-09-09T13:03:17;24.00;58.60
40289;DHT22;28991;52.028;5.526;2022-09-09T13:05:43;24.00;58.80
40289;DHT22;28991;52.028;5.526;2022-09-09T13:08:11;24.00;58.50
40289;DHT22;28991;52.028;5.526;2022-09-09T13:10:41;24.30;58.50
40289;DHT22;28991;52.028;5.526;2022-09-09T13:13:19;24.10;58.50
40289;DHT22;28991;52.028;5.526;2022-09-09T13:15:51;24.10;58.00
40289;DHT22;28991;52.028;5.526;2022-09-09T13:18:24;24.10;58.10
40289;DHT22;28991;52.028;5.526;2022-09-09T13:20:50;24.10;58.10
40289;DHT22;28991;52.028;5.526;2022-09-09T13:23:18;24.20;57.90
40289;DHT22;28991;52.028;5.526;2022-09-09T13:25:59;24.30;58.00
40289;DHT22;28991;52.028;5.526;2022-09-09T13:28:27;24.40;57.90
40289;DHT22;28991;52.028;5.526;2022-09-09T13:33:36;24.80;57.70
40289;DHT22;28991;52.028;5.526;2022-09-09T13:36:09;24.40;57.40
40289;DHT22;28991;52.028;5.526;2022-09-09T13:38:38;24.40;57.80
40289;DHT22;28991;52.028;5.526;2022-09-09T13:41:08;24.50;57.00
40289;DHT22;28991;52.028;5.526;2022-09-09T13:43:37;24.60;57.10
40289;DHT22;28991;52.028;5.526;2022-09-09T13:49:00;24.60;56.80
40289;DHT22;28991;52.028;5.526;2022-09-09T13:51:41;24.70;56.60
40289;DHT22;28991;52.028;5.526;2022-09-09T13:54:11;24.60;56.50
40289;DHT22;28991;52.028;5.526;2022-09-09T13:56:39;24.60;56.60
40289;DHT22;28991;52.028;5.526;2022-09-09T13:59:06;24.60;56.50
40289;DHT22;28991;52.028;5.526;2022-09-09T14:01:34;24.60;56.60
40289;DHT22;28991;52.028;5.526;2022-09-09T14:04:00;24.60;56.40
40289;DHT22;28991;52.028;5.526;2022-09-09T14:06:26;24.60;56.40
40289;DHT22;28991;52.028;5.526;2022-09-09T14:08:53;24.60;56.30
40289;DHT22;28991;52.028;5.526;2022-09-09T14:11:20;24.50;56.10
40289;DHT22;28991;52.028;5.526;2022-09-09T14:13:47;24.70;56.20
40289;DHT22;28991;52.028;5.526;2022-09-09T14:16:12;24.80;56.10
40289;DHT22;28991;52.028;5.526;2022-09-09T14:18:39;24.80;56.00
40289;DHT22;28991;52.028;5.526;2022-09-09T14:21:04;25.30;56.10
40289;DHT22;28991;52.028;5.526;2022-09-09T14:23:30;24.90;55.70
40289;DHT22;28991;52.028;5.526;2022-09-09T14:25:56;24.90;55.50
40289;DHT22;28991;52.028;5.526;2022-09-09T14:28:22;25.20;55.60
40289;DHT22;28991;52.028;5.526;2022-09-09T14:30:48;25.00;55.40
40289;DHT22;28991;52.028;5.526;2022-09-09T14:33:15;25.10;55.40
40289;DHT22;28991;52.028;5.526;2022-09-09T14:35:41;25.10;55.30
40289;DHT22;28991;52.028;5.526;2022-09-09T14:38:08;25.10;55.80
40289;DHT22;28991;52.028;5.526;2022-09-09T14:40:35;25.30;55.40
40289;DHT22;28991;52.028;5.526;2022-09-09T14:43:01;25.10;55.20
40289;DHT22;28991;52.028;5.526;2022-09-09T14:45:27;25.10;55.30
40289;DHT22;28991;52.028;5.526;2022-09-09T14:47:54;25.30;55.40
40289;DHT22;28991;52.028;5.526;2022-09-09T14:50:21;25.30;55.40
40289;DHT22;28991;52.028;5.526;2022-09-09T14:52:47;25.10;55.30
40289;DHT22;28991;52.028;5.526;2022-09-09T14:55:13;25.10;55.40
40289;DHT22;28991;52.028;5.526;2022-09-09T14:57:38;25.20;55.40
40289;DHT22;28991;52.028;5.526;2022-09-09T15:00:07;25.20;55.30
40289;DHT22;28991;52.028;5.526;2022-09-09T15:02:33;25.20;55.30
40289;DHT22;28991;52.028;5.526;2022-09-09T15:04:59;25.10;55.20
40289;DHT22;28991;52.028;5.526;2022-09-09T15:07:25;25.20;55.20
40289;DHT22;28991;52.028;5.526;2022-09-09T15:09:52;25.20;55.20
40289;DHT22;28991;52.028;5.526;2022-09-09T15:12:18;25.20;55.20
40289;DHT22;28991;52.028;5.526;2022-09-09T15:14:44;25.20;55.10
40289;DHT22;28991;52.028;5.526;2022-09-09T15:17:10;25.20;55.10
40289;DHT22;28991;52.028;5.526;2022-09-09T15:19:37;25.20;55.20
40289;DHT22;28991;52.028;5.526;2022-09-09T15:22:03;25.20;55.20
40289;DHT22;28991;52.028;5.526;2022-09-09T15:24:31;25.10;55.10
40289;DHT22;28991;52.028;5.526;2022-09-09T15:26:56;25.10;55.10
40289;DHT22;28991;52.028;5.526;2022-09-09T15:29:23;25.10;55.00
40289;DHT22;28991;52.028;5.526;2022-09-09T15:31:48;25.10;55.00
40289;DHT22;28991;52.028;5.526;2022-09-09T15:34:14;25.10;55.00
40289;DHT22;28991;52.028;5.526;2022-09-09T15:36:41;25.30;55.10
40289;DHT22;28991;52.028;5.526;2022-09-09T15:39:09;25.00;55.00
40289;DHT22;28991;52.028;5.526;2022-09-09T15:41:38;25.00;55.00
40289;DHT22;28991;52.028;5.526;2022-09-09T15:44:05;25.00;55.00
40289;DHT22;28991;52.028;5.526;2022-09-09T15:46:33;25.00;55.00
40289;DHT22;28991;52.028;5.526;2022-09-09T15:51:31;25.00;55.00
40289;DHT22;28991;52.028;5.526;2022-09-09T15:53:58;25.20;55.10
40289;DHT22;28991;52.028;5.526;2022-09-09T15:56:26;25.00;54.90
40289;DHT22;28991;52.028;5.526;2022-09-09T15:58:53;25.10;54.90
40289;DHT22;28991;52.028;5.526;2022-09-09T16:01:20;25.20;54.90
40289;DHT22;28991;52.028;5.526;2022-09-09T16:03:46;24.90;54.60
40289;DHT22;28991;52.028;5.526;2022-09-09T16:06:14;25.00;54.70
40289;DHT22;28991;52.028;5.526;2022-09-09T16:08:42;24.90;54.60
40289;DHT22;28991;52.028;5.526;2022-09-09T16:11:14;24.90;54.60
40289;DHT22;28991;52.028;5.526;2022-09-09T16:13:42;25.20;54.70
40289;DHT22;28991;52.028;5.526;2022-09-09T16:16:10;25.00;54.50
40289;DHT22;28991;52.028;5.526;2022-09-09T16:18:44;25.10;54.60
40289;DHT22;28991;52.028;5.526;2022-09-09T16:21:19;25.10;54.50
40289;DHT22;28991;52.028;5.526;2022-09-09T16:23:45;25.30;54.60
40289;DHT22;28991;52.028;5.526;2022-09-09T16:26:12;25.10;54.40
40289;DHT22;28991;52.028;5.526;2022-09-09T16:28:39;25.10;54.40
40289;DHT22;28991;52.028;5.526;2022-09-09T16:31:09;25.20;54.40
40289;DHT22;28991;52.028;5.526;2022-09-09T16:33:36;25.20;54.30
40289;DHT22;28991;52.028;5.526;2022-09-09T16:36:06;25.20;54.30
40289;DHT22;28991;52.028;5.526;2022-09-09T16:38:32;25.20;54.30
40289;DHT22;28991;52.028;5.526;2022-09-09T16:40:59;25.20;54.30
40289;DHT22;28991;52.028;5.526;2022-09-09T16:43:25;25.40;54.50
40289;DHT22;28991;52.028;5.526;2022-09-09T16:45:50;25.20;54.90
40289;DHT22;28991;52.028;5.526;2022-09-09T16:48:16;25.20;54.20
40289;DHT22;28991;52.028;5.526;2022-09-09T16:50:41;25.30;54.30
40289;DHT22;28991;52.028;5.526;2022-09-09T16:53:07;25.20;54.20
40289;DHT22;28991;52.028;5.526;2022-09-09T16:55:40;25.20;54.20
40289;DHT22;28991;52.028;5.526;2022-09-09T16:58:11;25.60;54.50
40289;DHT22;28991;52.028;5.526;2022-09-09T17:00:36;25.30;54.30
40289;DHT22;28991;52.028;5.526;2022-09-09T17:03:02;25.30;54.30
40289;DHT22;28991;52.028;5.526;2022-09-09T17:05:28;25.20;54.20
40289;DHT22;28991;52.028;5.526;2022-09-09T17:07:54;25.20;54.20
40289;DHT22;28991;52.028;5.526;2022-09-09T17:10:24;25.20;54.20
40289;DHT22;28991;52.028;5.526;2022-09-09T17:12:50;25.20;54.20
40289;DHT22;28991;52.028;5.526;2022-09-09T17:15:16;25.20;54.20
40289;DHT22;28991;52.028;5.526;2022-09-09T17:17:43;25.20;54.20
40289;DHT22;28991;52.028;5.526;2022-09-09T17:20:10;25.20;54.20
40289;DHT22;28991;52.028;5.526;2022-09-09T17:22:36;25.20;54.20
40289;DHT22;28991;52.028;5.526;2022-09-09T17:25:02;25.20;54.20
40289;DHT22;28991;52.028;5.526;2022-09-09T17:27:28;25.20;54.30
40289;DHT22;28991;52.028;5.526;2022-09-09T17:29:56;25.20;54.30
40289;DHT22;28991;52.028;5.526;2022-09-09T17:32:22;25.20;54.30
40289;DHT22;28991;52.028;5.526;2022-09-09T17:34:48;25.20;54.30
40289;DHT22;28991;52.028;5.526;2022-09-09T17:37:14;25.20;54.30
40289;DHT22;28991;52.028;5.526;2022-09-09T17:39:39;25.20;54.30
40289;DHT22;28991;52.028;5.526;2022-09-09T17:42:05;25.20;54.40
40289;DHT22;28991;52.028;5.526;2022-09-09T17:44:32;25.20;54.30
40289;DHT22;28991;52.028;5.526;2022-09-09T17:46:58;25.20;54.30
40289;DHT22;28991;52.028;5.526;2022-09-09T17:49:24;25.20;54.40